Time;durP1;ratioP1;P1;durP2;ratioP2;P2;SDS_P1;SDS_P2;PMS_P1;PMS_P2;Temp;Humidity;BMP_temperature;BMP_pressure;BME280_temperature;BME280_humidity;BME280_pressure;Samples;Min_cycle;Max_cycle;Signal;HPM_P1;HPM_P2
2022/02/17 00:00:27;;;;;;;6.07;1.67;;;;;;;;;;5075373;28;20029;-45
2022/02/17 00:02:53;;;;;;;9.07;2.33;;;;;;;;;;5075083;28;20121;-44
2022/02/17 00:05:20;;;;;;;7.30;1.92;;;16.60;73.40;;;;;;5075733;28;20036;-45
2022/02/17 00:07:47;;;;;;;6.03;1.55;;;;;;;;;;5075439;28;20029;-45
2022/02/17 00:10:13;;;;;;;5.68;1.80;;;;;;;;;;5075230;28;20025;-44
2022/02/17 00:12:39;;;;;;;7.60;1.80;;;;;;;;;;5075207;28;20039;-45
2022/02/17 00:15:05;;;;;;;4.68;1.50;;;;;;;;;;5075077;28;20040;-44
2022/02/17 00:17:32;;;;;;;7.10;1.92;;;;;;;;;;5075085;28;20098;-45
2022/02/17 00:19:58;;;;;;;7.65;1.90;;;;;;;;;;5074994;28;20481;-44
2022/02/17 00:22:24;;;;;;;5.38;1.80;;;;;;;;;;5075034;28;20078;-45
2022/02/17 00:24:50;;;;;;;6.15;1.80;;;;;;;;;;5073586;28;20520;-45
2022/02/17 00:27:16;;;;;;;7.45;1.83;;;;;;;;;;5074883;28;20077;-46
2022/02/17 00:29:42;;;;;;;6.47;1.55;;;;;;;;;;5075164;28;20475;-46
2022/02/17 00:32:08;;;;;;;8.35;1.98;;;;;;;;;;5074714;28;20055;-46
2022/02/17 00:34:34;;;;;;;6.20;1.83;;;;;;;;;;5074761;28;20124;-47
2022/02/17 00:37:03;;;;;;;3.58;1.38;;;;;;;;;;5074654;28;20107;-45
2022/02/17 00:39:29;;;;;;;8.30;2.35;;;;;;;;;;5074714;28;20028;-45
2022/02/17 00:41:55;;;;;;;2.95;1.50;;;;;;;;;;5074540;28;20523;-44
2022/02/17 00:44:21;;;;;;;7.55;1.70;;;;;;;;;;5074545;28;20104;-44
2022/02/17 00:46:48;;;;;;;6.80;1.75;;;;;;;;;;5074545;28;20103;-45
2022/02/17 00:49:14;;;;;;;4.72;1.70;;;;;;;;;;5074574;28;20498;-59
2022/02/17 00:51:40;;;;;;;6.32;1.90;;;;;;;;;;5074444;28;20467;-59
2022/02/17 00:54:06;;;;;;;4.88;1.73;;;;;;;;;;5074242;28;20037;-59
2022/02/17 00:56:32;;;;;;;8.68;1.55;;;;;;;;;;5074372;28;20058;-58
2022/02/17 00:58:58;;;;;;;5.15;1.80;;;;;;;;;;5074318;28;20032;-59
2022/02/17 01:01:24;;;;;;;6.25;1.33;;;;;;;;;;5074161;28;20031;-59
2022/02/17 01:03:50;;;;;;;5.07;1.55;;;;;;;;;;5074072;28;20056;-59
2022/02/17 01:06:16;;;;;;;6.88;2.03;;;;;;;;;;5074171;28;20016;-59
2022/02/17 01:08:42;;;;;;;6.78;2.08;;;;;;;;;;5074417;28;20024;-59
2022/02/17 01:11:08;;;;;;;7.13;1.85;;;;;;;;;;5074032;28;20136;-59
2022/02/17 01:13:34;;;;;;;6.05;1.75;;;;;;;;;;5073890;28;20036;-59
2022/02/17 01:16:00;;;;;;;7.68;2.40;;;;;;;;;;5073978;28;20463;-59
2022/02/17 01:18:26;;;;;;;7.93;2.25;;;;;;;;;;5073906;28;20036;-59
2022/02/17 01:20:52;;;;;;;9.38;2.50;;;;;;;;;;5073817;28;20020;-59
2022/02/17 01:23:18;;;;;;;5.50;1.58;;;;;;;;;;5073773;28;20069;-59
2022/02/17 01:25:44;;;;;;;6.28;1.85;;;;;;;;;;5073803;28;20115;-58
2022/02/17 01:28:10;;;;;;;5.95;1.70;;;;;;;;;;5073700;28;20036;-59
2022/02/17 01:30:36;;;;;;;7.18;1.92;;;;;;;;;;5073615;28;20032;-59
2022/02/17 01:33:02;;;;;;;5.47;1.95;;;;;;;;;;5073527;28;20036;-59
2022/02/17 01:35:29;;;;;;;6.10;1.55;;;;;;;;;;5073107;28;20025;-59
2022/02/17 01:37:55;;;;;;;6.15;2.17;;;;;;;;;;5073510;28;20111;-58
2022/02/17 01:40:21;;;;;;;9.63;3.20;;;16.40;71.50;;;;;;5073457;28;20048;-59
2022/02/17 01:42:47;;;;;;;8.05;2.22;;;;;;;;;;5073376;28;20482;-59
2022/02/17 01:45:13;;;;;;;8.55;1.98;;;;;;;;;;5073427;28;20031;-59
2022/02/17 01:47:39;;;;;;;6.30;1.73;;;;;;;;;;5073307;28;20119;-59
2022/02/17 01:50:05;;;;;;;7.38;1.95;;;;;;;;;;5073273;28;20025;-59
2022/02/17 01:52:31;;;;;;;5.63;1.88;;;;;;;;;;5073157;28;20506;-59
2022/02/17 01:54:57;;;;;;;8.48;2.08;;;16.40;72.40;;;;;;5073155;28;20498;-59
2022/02/17 01:57:25;;;;;;;8.27;1.98;;;16.40;72.40;;;;;;5073063;28;20486;-59
2022/02/17 01:59:51;;;;;;;8.73;2.40;;;;;;;;;;5073101;28;20056;-59
2022/02/17 02:02:17;;;;;;;10.18;2.60;;;;;;;;;;5072820;28;20085;-59
2022/02/17 02:04:43;;;;;;;8.13;2.20;;;;;;;;;;5073325;28;20028;-59
2022/02/17 02:07:10;;;;;;;7.70;2.17;;;;;;;;;;5072953;28;20056;-58
2022/02/17 02:09:36;;;;;;;11.98;2.67;;;16.30;74.00;;;;;;5072886;28;20489;-59
2022/02/17 02:12:03;;;;;;;8.38;2.40;;;16.30;71.70;;;;;;5072872;28;20024;-59
2022/02/17 02:14:29;;;;;;;7.22;1.98;;;16.40;70.70;;;;;;5072744;28;20033;-59
2022/02/17 02:16:55;;;;;;;7.50;2.05;;;;;;;;;;5072796;28;20071;-58
2022/02/17 02:19:22;;;;;;;10.05;2.25;;;16.10;72.40;;;;;;5072732;28;20453;-59
2022/02/17 02:21:48;;;;;;;9.07;2.30;;;;;;;;;;5072812;28;20505;-59
2022/02/17 02:24:14;;;;;;;7.72;1.90;;;;;;;;;;5072661;28;20036;-58
2022/02/17 02:26:40;;;;;;;9.23;2.75;;;;;;;;;;5072659;28;20452;-58
2022/02/17 02:29:06;;;;;;;7.30;2.35;;;;;;;;;;5072594;28;20067;-58
2022/02/17 02:31:32;;;;;;;12.10;2.60;;;;;;;;;;5072535;28;20024;-59
2022/02/17 02:33:58;;;;;;;7.70;2.30;;;;;;;;;;5072484;28;20198;-58
2022/02/17 02:36:25;;;;;;;9.98;2.63;;;;;;;;;;5072504;28;20021;-59
2022/02/17 02:38:51;;;;;;;8.00;2.20;;;;;;;;;;5072767;28;20032;-59
2022/02/17 02:41:17;;;;;;;6.07;2.00;;;;;;;;;;5072493;28;20029;-45
2022/02/17 02:43:43;;;;;;;7.72;2.10;;;;;;;;;;5072337;28;20032;-45
2022/02/17 02:46:09;;;;;;;5.82;2.00;;;;;;;;;;5072401;28;20082;-45
2022/02/17 02:48:35;;;;;;;8.57;2.35;;;;;;;;;;5071639;28;20104;-44
2022/02/17 02:51:01;;;;;;;6.45;1.83;;;;;;;;;;5072333;28;20028;-45
2022/02/17 02:53:27;;;;;;;9.30;2.42;;;;;;;;;;5072222;28;20467;-45
2022/02/17 02:55:53;;;;;;;8.07;2.33;;;;;;;;;;5072312;28;20025;-46
2022/02/17 02:58:19;;;;;;;7.28;2.33;;;;;;;;;;5072366;28;20497;-45
2022/02/17 03:00:48;;;;;;;9.10;2.55;;;16.20;73.80;;;;;;5072194;28;20036;-45
2022/02/17 03:03:14;;;;;;;9.07;2.80;;;;;;;;;;5071975;28;20048;-44
2022/02/17 03:05:40;;;;;;;9.95;2.10;;;;;;;;;;5072129;28;20078;-45
2022/02/17 03:08:06;;;;;;;7.72;2.20;;;;;;;;;;5072179;28;20052;-44
2022/02/17 03:10:32;;;;;;;6.57;2.08;;;;;;;;;;5072167;28;20046;-45
2022/02/17 03:12:58;;;;;;;6.95;2.30;;;;;;;;;;5071980;28;20032;-45
2022/02/17 03:15:25;;;;;;;10.10;2.95;;;;;;;;;;5072127;28;20040;-45
2022/02/17 03:17:51;;;;;;;12.35;2.75;;;;;;;;;;5072070;28;20441;-59
2022/02/17 03:20:17;;;;;;;10.27;2.85;;;16.30;72.40;;;;;;5072025;28;20105;-58
2022/02/17 03:22:43;;;;;;;9.05;2.25;;;;;;;;;;5071993;28;20020;-58
2022/02/17 03:25:12;;;;;;;9.90;2.50;;;16.20;73.70;;;;;;5072025;28;20032;-58
2022/02/17 03:27:38;;;;;;;7.93;2.28;;;;;;;;;;5071909;28;20024;-59
2022/02/17 03:30:06;;;;;;;9.07;2.20;;;16.20;73.80;;;;;;5071919;28;20032;-58
2022/02/17 03:32:34;;;;;;;7.00;2.40;;;16.20;73.70;;;;;;5072044;28;20024;-59
2022/02/17 03:34:59;;;;;;;9.90;2.47;;;;;;;;;;5072002;28;20032;-58
2022/02/17 03:37:25;;;;;;;9.88;2.28;;;;;;;;;;5071923;28;20025;-59
2022/02/17 03:39:51;;;;;;;6.75;2.20;;;;;;;;;;5071858;28;20029;-59
2022/02/17 03:42:17;;;;;;;8.45;2.38;;;;;;;;;;5071868;28;20455;-59
2022/02/17 03:44:43;;;;;;;10.88;2.55;;;;;;;;;;5071734;28;20507;-59
2022/02/17 03:47:09;;;;;;;11.63;3.45;;;;;;;;;;5071801;28;20025;-59
2022/02/17 03:49:35;;;;;;;9.77;2.42;;;;;;;;;;5071734;28;20060;-59
2022/02/17 03:52:01;;;;;;;7.82;2.20;;;;;;;;;;5071829;28;20063;-58
2022/02/17 03:54:27;;;;;;;10.15;2.53;;;;;;;;;;5071771;28;20041;-59
2022/02/17 03:56:53;;;;;;;10.70;2.63;;;;;;;;;;5071649;28;20031;-58
2022/02/17 03:59:19;;;;;;;10.68;2.63;;;;;;;;;;5073776;28;20041;-59
2022/02/17 04:01:45;;;;;;;8.80;2.55;;;;;;;;;;5075133;28;20025;-57
2022/02/17 04:04:11;;;;;;;9.85;2.78;;;;;;;;;;5075363;28;20040;-58
2022/02/17 04:06:38;;;;;;;8.18;2.13;;;;;;;;;;5075288;28;20033;-58
2022/02/17 04:09:04;;;;;;;8.75;2.60;;;16.30;72.80;;;;;;5075201;28;20093;-58
2022/02/17 04:11:30;;;;;;;8.55;2.55;;;;;;;;;;5075560;28;20028;-58
2022/02/17 04:13:56;;;;;;;10.23;2.30;;;;;;;;;;5075071;28;20036;-59
2022/02/17 04:16:22;;;;;;;11.60;2.83;;;;;;;;;;5075120;28;20024;-59
2022/02/17 04:18:49;;;;;;;10.65;2.60;;;16.00;73.80;;;;;;5075005;28;20463;-59
2022/02/17 04:21:16;;;;;;;8.80;3.00;;;16.10;73.80;;;;;;5075028;28;20025;-59
2022/02/17 04:23:44;;;;;;;11.13;3.28;;;;;;;;;;5075216;28;20598;-60
2022/02/17 04:26:15;;;;;;;8.70;2.30;;;16.10;68.30;;;;;;5074980;28;20517;-59
2022/02/17 04:28:41;;;;;;;6.30;2.15;;;16.10;71.40;;;;;;5074927;28;20029;-59
2022/02/17 04:31:08;;;;;;;8.77;2.22;;;;;;;;;;5074933;28;20032;-59
2022/02/17 04:33:34;;;;;;;8.02;2.58;;;16.10;73.30;;;;;;5074714;28;20041;-59
2022/02/17 04:36:00;;;;;;;8.10;2.25;;;;;;;;;;5074788;28;20017;-59
2022/02/17 04:38:26;;;;;;;11.57;2.85;;;;;;;;;;5074744;28;20392;-59
2022/02/17 04:43:45;;;;;;;10.82;3.13;;;;;;;;;;5043447;28;20445;-59
2022/02/17 04:46:12;;;;;;;8.98;2.35;;;16.10;72.50;;;;;;5074555;28;20024;-59
2022/02/17 04:48:38;;;;;;;9.82;2.88;;;;;;;;;;5074635;28;20029;-59
2022/02/17 04:51:04;;;;;;;9.23;2.65;;;;;;;;;;5074451;28;20039;-59
2022/02/17 04:53:30;;;;;;;11.98;2.92;;;;;;;;;;5074391;28;20044;-59
2022/02/17 04:55:56;;;;;;;9.30;2.45;;;;;;;;;;5074400;28;20085;-58
2022/02/17 04:58:25;;;;;;;10.63;3.00;;;;;;;;;;5074358;28;20597;-59
2022/02/17 05:00:51;;;;;;;7.00;2.38;;;16.10;71.20;;;;;;5074238;28;20021;-59
2022/02/17 05:03:17;;;;;;;7.75;2.35;;;;;;;;;;5074048;28;20491;-59
2022/02/17 05:05:44;;;;;;;10.23;2.85;;;;;;;;;;5074533;28;20033;-59
2022/02/17 05:08:10;;;;;;;11.60;3.22;;;;;;;;;;5074239;28;20131;-59
2022/02/17 05:10:36;;;;;;;8.55;2.90;;;;;;;;;;5073396;28;20056;-59
2022/02/17 05:13:02;;;;;;;10.20;2.78;;;;;;;;;;5074027;28;20558;-59
2022/02/17 05:15:28;;;;;;;7.35;2.53;;;;;;;;;;5074076;28;20036;-59
2022/02/17 05:17:57;;;;;;;10.35;3.00;;;;;;;;;;5074023;28;20093;-59
2022/02/17 05:20:23;;;;;;;9.25;2.85;;;16.00;74.10;;;;;;5073944;28;20108;-59
2022/02/17 05:22:49;;;;;;;10.48;2.78;;;;;;;;;;5073866;28;20024;-59
2022/02/17 05:25:15;;;;;;;11.95;2.95;;;;;;;;;;5074084;28;20112;-59
2022/02/17 05:27:41;;;;;;;13.75;3.22;;;;;;;;;;5073755;28;20059;-59
2022/02/17 05:30:07;;;;;;;11.05;2.45;;;16.00;70.70;;;;;;5073722;28;20024;-59
2022/02/17 05:32:41;;;;;;;8.00;2.72;;;16.00;74.20;;;;;;5073506;28;20039;-59
2022/02/17 05:35:08;;;;;;;10.10;2.45;;;16.20;71.90;;;;;;5073862;28;20032;-59
2022/02/17 05:37:34;;;;;;;9.63;2.92;;;;;;;;;;5073645;28;20033;-59
2022/02/17 05:40:00;;;;;;;13.32;2.90;;;;;;;;;;5073489;28;20052;-59
2022/02/17 05:42:26;;;;;;;8.93;2.60;;;;;;;;;;5073430;28;20027;-59
2022/02/17 05:44:52;;;;;;;11.00;3.15;;;;;;;;;;5073468;28;20037;-59
2022/02/17 05:47:18;;;;;;;11.32;2.60;;;;;;;;;;5073397;28;20028;-59
2022/02/17 05:49:44;;;;;;;10.68;2.60;;;;;;;;;;5073340;28;20198;-59
2022/02/17 05:52:10;;;;;;;11.65;2.67;;;;;;;;;;5073300;28;20486;-59
2022/02/17 05:54:36;;;;;;;9.75;2.67;;;;;;;;;;5073226;28;20439;-59
2022/02/17 05:57:02;;;;;;;9.43;2.75;;;;;;;;;;5073228;28;20021;-59
2022/02/17 05:59:28;;;;;;;9.80;2.78;;;;;;;;;;5073372;28;20111;-59
2022/02/17 06:01:54;;;;;;;8.40;2.22;;;;;;;;;;5072931;28;20021;-58
2022/02/17 06:04:20;;;;;;;11.27;3.00;;;;;;;;;;5073067;28;20499;-59
2022/02/17 06:06:46;;;;;;;11.30;3.17;;;;;;;;;;5073049;28;20099;-59
2022/02/17 06:09:12;;;;;;;15.02;3.70;;;;;;;;;;5072922;28;20024;-59
2022/02/17 06:11:38;;;;;;;8.38;2.00;;;;;;;;;;5072933;28;20025;-59
2022/02/17 06:14:04;;;;;;;10.60;2.95;;;;;;;;;;5072825;28;20037;-59
2022/02/17 06:16:30;;;;;;;10.00;3.05;;;;;;;;;;5072789;28;20475;-59
2022/02/17 06:18:56;;;;;;;13.75;3.08;;;;;;;;;;5073124;28;20025;-59
2022/02/17 06:21:22;;;;;;;10.23;2.42;;;;;;;;;;5072793;28;20490;-58
2022/02/17 06:23:48;;;;;;;6.75;2.13;;;;;;;;;;5072669;28;20051;-59
2022/02/17 06:26:15;;;;;;;6.88;2.17;;;;;;;;;;5072903;28;20017;-59
2022/02/17 06:28:41;;;;;;;11.68;3.10;;;;;;;;;;5072647;28;20085;-58
2022/02/17 06:31:07;;;;;;;7.35;2.70;;;;;;;;;;5072569;28;20120;-58
2022/02/17 06:33:33;;;;;;;10.38;2.75;;;;;;;;;;5072429;28;20041;-59
2022/02/17 06:35:59;;;;;;;10.70;2.60;;;;;;;;;;5072554;28;20544;-59
2022/02/17 06:38:27;;;;;;;7.70;2.60;;;15.90;73.80;;;;;;5072529;28;20052;-59
2022/02/17 06:40:53;;;;;;;11.48;2.90;;;;;;;;;;5054551;28;20017;-59
2022/02/17 06:43:19;;;;;;;8.15;2.17;;;;;;;;;;5072388;28;20112;-59
2022/02/17 06:45:46;;;;;;;10.02;2.97;;;15.80;73.80;;;;;;5072386;28;20386;-59
2022/02/17 06:48:12;;;;;;;8.73;2.47;;;;;;;;;;5072372;28;20120;-59
2022/02/17 06:50:38;;;;;;;12.73;3.63;;;15.80;70.50;;;;;;5072273;28;20024;-59
2022/02/17 06:53:06;;;;;;;7.82;2.88;;;;;;;;;;5072256;28;20090;-59
2022/02/17 06:55:33;;;;;;;8.60;2.92;;;;;;;;;;5072302;28;20031;-59
2022/02/17 06:57:59;;;;;;;11.27;3.00;;;;;;;;;;5072388;28;20383;-46
2022/02/17 07:00:25;;;;;;;5.78;1.92;;;;;;;;;;5072314;28;20027;-45
2022/02/17 07:02:53;;;;;;;8.20;2.50;;;15.90;74.00;;;;;;5071916;28;20410;-45
2022/02/17 07:05:23;;;;;;;10.13;3.00;;;15.90;73.90;;;;;;5072154;28;20032;-45
2022/02/17 07:07:49;;;;;;;8.77;2.33;;;;;;;;;;5072399;28;20024;-46
2022/02/17 07:10:54;;;;;;;7.57;2.38;;;;;;;;;;5072168;28;20356;-45
2022/02/17 07:13:01;;;;;;;12.30;2.53;;;;;;;;;;5071815;28;20037;-46
2022/02/17 07:15:28;;;;;;;9.63;2.53;;;;;;;;;;5072432;28;20082;-46
2022/02/17 07:17:54;;;;;;;9.25;2.22;;;;;;;;;;5072328;28;20115;-59
2022/02/17 07:20:20;;;;;;;14.18;3.47;;;;;;;;;;5072083;28;20104;-59
2022/02/17 07:22:46;;;;;;;12.48;3.00;;;;;;;;;;5071879;28;20084;-59
2022/02/17 07:25:12;;;;;;;10.25;3.00;;;;;;;;;;5071485;28;20037;-59
2022/02/17 07:27:38;;;;;;;7.25;2.35;;;;;;;;;;5070013;28;20027;-59
2022/02/17 07:30:04;;;;;;;7.63;2.25;;;;;;;;;;5069963;28;20482;-59
2022/02/17 07:32:31;;;;;;;10.48;2.20;;;;;;;;;;5070053;28;20024;-59
2022/02/17 07:34:57;;;;;;;11.98;3.28;;;;;;;;;;5073394;28;20029;-58
2022/02/17 07:37:23;;;;;;;11.90;2.80;;;;;;;;;;5074179;28;20021;-58
2022/02/17 07:39:49;;;;;;;9.23;2.55;;;;;;;;;;5055990;28;20036;-57
2022/02/17 07:42:16;;;;;;;10.63;2.92;;;;;;;;;;5073890;28;20046;-57
2022/02/17 07:44:42;;;;;;;10.50;2.28;;;;;;;;;;5075716;28;20030;-58
2022/02/17 07:47:08;;;;;;;11.63;2.72;;;;;;;;;;5075593;28;20028;-58
2022/02/17 07:49:34;;;;;;;13.27;2.75;;;;;;;;;;5075245;28;20024;-58
2022/02/17 07:52:00;;;;;;;10.88;2.28;;;;;;;;;;5075352;28;20039;-56
2022/02/17 07:54:26;;;;;;;8.43;2.38;;;;;;;;;;5075302;28;20041;-47
2022/02/17 07:56:52;;;;;;;11.15;2.80;;;;;;;;;;5075283;28;20112;-46
2022/02/17 07:59:18;;;;;;;9.50;2.65;;;;;;;;;;5075476;28;20056;-46
2022/02/17 08:01:44;;;;;;;8.75;2.65;;;;;;;;;;5075097;28;20048;-47
2022/02/17 08:04:10;;;;;;;7.28;2.55;;;;;;;;;;5075441;28;20107;-46
2022/02/17 08:06:38;;;;;;;13.32;3.00;;;;;;;;;;5075578;28;20036;-46
2022/02/17 08:09:04;;;;;;;11.32;3.08;;;;;;;;;;5075568;28;20111;-46
2022/02/17 08:11:30;;;;;;;12.45;3.30;;;;;;;;;;5075398;28;20032;-46
2022/02/17 08:13:56;;;;;;;13.00;3.13;;;16.00;71.60;;;;;;5074910;28;20035;-45
2022/02/17 08:16:25;;;;;;;8.50;2.40;;;;;;;;;;5075111;28;20056;-46
2022/02/17 08:18:51;;;;;;;12.30;2.08;;;;;;;;;;5075325;28;20033;-45
2022/02/17 08:21:17;;;;;;;11.35;3.53;;;;;;;;;;5075057;28;20021;-46
2022/02/17 08:23:43;;;;;;;12.00;2.95;;;;;;;;;;5074943;28;20539;-46
2022/02/17 08:26:09;;;;;;;10.65;2.80;;;;;;;;;;5074926;28;20024;-47
2022/02/17 08:28:35;;;;;;;10.75;2.22;;;;;;;;;;5075188;28;20071;-46
2022/02/17 08:31:01;;;;;;;7.85;2.38;;;;;;;;;;5074670;28;20021;-46
2022/02/17 08:33:27;;;;;;;9.32;2.13;;;;;;;;;;5074464;28;20415;-46
2022/02/17 08:35:53;;;;;;;8.15;2.45;;;;;;;;;;5074390;28;20036;-47
2022/02/17 08:38:19;;;;;;;9.90;2.85;;;;;;;;;;5074537;28;20048;-46
2022/02/17 08:40:45;;;;;;;7.35;2.00;;;;;;;;;;5074523;28;20025;-46
2022/02/17 08:43:13;;;;;;;11.25;3.42;;;;;;;;;;5074995;28;20056;-46
2022/02/17 08:45:41;;;;;;;9.45;1.92;;;16.20;74.80;;;;;;5073283;28;20486;-46
2022/02/17 08:48:07;;;;;;;10.65;3.05;;;;;;;;;;5074796;28;20406;-46
2022/02/17 08:50:34;;;;;;;9.18;2.70;;;16.20;74.50;;;;;;5074553;28;20032;-46
2022/02/17 08:53:00;;;;;;;11.75;3.35;;;;;;;;;;5074378;28;20062;-46
2022/02/17 08:55:26;;;;;;;6.40;2.10;;;;;;;;;;5074516;28;20028;-47
2022/02/17 08:57:53;;;;;;;7.35;1.95;;;;;;;;;;5074633;28;20027;-46
2022/02/17 09:00:19;;;;;;;9.90;2.60;;;;;;;;;;5074606;28;20032;-46
2022/02/17 09:02:45;;;;;;;6.95;1.95;;;;;;;;;;5074094;28;20064;-46
2022/02/17 09:05:11;;;;;;;9.45;2.35;;;;;;;;;;5074276;28;20025;-47
2022/02/17 09:07:37;;;;;;;6.47;2.13;;;;;;;;;;5074344;28;20036;-46
2022/02/17 09:10:04;;;;;;;10.10;2.42;;;16.60;72.40;;;;;;5074421;28;20027;-46
2022/02/17 09:12:30;;;;;;;8.18;2.00;;;;;;;;;;5073925;28;20036;-47
2022/02/17 09:14:56;;;;;;;6.40;2.00;;;;;;;;;;5074130;28;20028;-45
2022/02/17 09:17:22;;;;;;;8.45;2.10;;;;;;;;;;5074264;28;20020;-45
2022/02/17 09:19:48;;;;;;;10.73;2.28;;;;;;;;;;5074035;28;20036;-46
2022/02/17 09:22:14;;;;;;;8.10;1.98;;;;;;;;;;5073940;28;20064;-45
2022/02/17 09:24:40;;;;;;;6.20;1.83;;;;;;;;;;5074059;28;20028;-46
2022/02/17 09:27:06;;;;;;;7.75;2.05;;;;;;;;;;5073827;28;20120;-46
2022/02/17 09:29:32;;;;;;;4.57;1.60;;;;;;;;;;5074127;28;20032;-46
2022/02/17 09:31:58;;;;;;;7.63;1.80;;;;;;;;;;5074015;28;20032;-45
2022/02/17 09:34:25;;;;;;;7.22;1.90;;;;;;;;;;5073588;28;20044;-46
2022/02/17 09:36:51;;;;;;;5.18;1.75;;;;;;;;;;5073657;28;20021;-46
2022/02/17 09:39:18;;;;;;;3.40;1.77;;;;;;;;;;5073405;28;20055;-46
2022/02/17 09:41:45;;;;;;;5.70;2.35;;;;;;;;;;5073438;28;20423;-46
2022/02/17 09:44:11;;;;;;;6.28;1.90;;;;;;;;;;5073242;28;20032;-45
2022/02/17 09:46:41;;;;;;;5.53;1.55;;;17.20;72.30;;;;;;5073505;28;20394;-45
2022/02/17 09:49:07;;;;;;;6.53;1.75;;;;;;;;;;5073148;28;20479;-46
2022/02/17 09:51:33;;;;;;;6.43;2.03;;;17.30;71.20;;;;;;5073206;28;20036;-46
2022/02/17 09:54:00;;;;;;;4.13;1.55;;;17.30;70.30;;;;;;5073362;28;20115;-46
2022/02/17 09:56:26;;;;;;;3.28;1.10;;;;;;;;;;5072911;28;20052;-45
2022/02/17 09:58:53;;;;;;;5.80;1.60;;;17.30;72.70;;;;;;5054994;28;20070;-45
2022/02/17 10:01:23;;;;;;;4.25;1.52;;;17.40;72.70;;;;;;5073237;28;20074;-46
2022/02/17 10:03:49;;;;;;;5.75;1.60;;;;;;;;;;5072829;28;20518;-47
2022/02/17 10:06:16;;;;;;;6.50;1.70;;;17.50;72.60;;;;;;5072869;28;20040;-46
2022/02/17 10:08:43;;;;;;;6.93;2.15;;;17.50;72.50;;;;;;5072911;28;20025;-45
2022/02/17 10:11:26;;;;;;;6.43;1.70;;;17.50;72.80;;;;;;5072804;28;20020;-45
2022/02/17 10:13:59;;;;;;;4.65;1.55;;;17.60;66.60;;;;;;5072756;28;20103;-46
2022/02/17 10:16:25;;;;;;;7.80;1.52;;;;;;;;;;5072893;28;20024;-46
2022/02/17 10:18:51;;;;;;;3.50;1.48;;;;;;;;;;5072728;28;20544;-45
2022/02/17 10:21:17;;;;;;;5.63;1.83;;;;;;;;;;5072664;28;20067;-46
2022/02/17 10:23:48;;;;;;;7.18;1.45;;;17.60;71.60;;;;;;5072537;28;20036;-46
2022/02/17 10:26:16;;;;;;;4.55;1.58;;;17.70;71.50;;;;;;5072610;28;20089;-46
2022/02/17 10:28:57;;;;;;;5.43;1.65;;;17.70;65.60;;;;;;5072989;28;20028;-47
2022/02/17 10:31:30;;;;;;;4.85;1.83;;;17.70;65.60;;;;;;5072578;28;20036;-47
2022/02/17 10:33:58;;;;;;;7.95;1.80;;;17.80;71.30;;;;;;5072284;28;20033;-46
2022/02/17 10:36:39;;;;;;;5.35;1.48;;;17.80;65.50;;;;;;5072459;28;20043;-46
2022/02/17 10:39:08;;;;;;;5.68;1.60;;;17.80;65.30;;;;;;5072855;28;20051;-46
2022/02/17 10:41:46;;;;;;;2.50;1.33;;;17.80;65.40;;;;;;5072336;28;20064;-46
2022/02/17 10:44:13;;;;;;;3.88;1.20;;;;;;;;;;5072311;28;20388;-46
2022/02/17 10:46:38;;;;;;;7.45;1.77;;;;;;;;;;5072274;28;20439;-45
2022/02/17 10:49:19;;;;;;;5.15;1.50;;;17.80;65.10;;;;;;5072312;28;20114;-46
2022/02/17 10:51:47;;;;;;;3.28;1.17;;;17.80;70.70;;;;;;5072215;28;20035;-46
2022/02/17 10:54:19;;;;;;;5.80;1.70;;;17.80;70.70;;;;;;5072218;28;20391;-45
2022/02/17 10:56:46;;;;;;;4.43;1.50;;;;;;;;;;5072442;28;20024;-46
2022/02/17 11:01:57;;;;;;;6.07;1.08;;;;;;;;;;5071882;28;20032;-45
2022/02/17 11:04:24;;;;;;;4.70;1.35;;;17.80;70.40;;;;;;5072136;28;20024;-47
2022/02/17 11:06:52;;;;;;;5.20;1.70;;;17.80;70.40;;;;;;5072149;28;20035;-46
2022/02/17 11:09:18;;;;;;;3.17;1.25;;;17.80;68.10;;;;;;5072011;28;20036;-45
2022/02/17 11:11:52;;;;;;;4.47;1.42;;;17.90;70.40;;;;;;5072303;28;20032;-45
2022/02/17 11:14:40;;;;;;;5.20;1.67;;;17.80;64.80;;;;;;5072232;28;20041;-45
2022/02/17 11:17:08;;;;;;;5.57;1.30;;;17.80;69.70;;;;;;5072211;28;20028;-46
2022/02/17 11:19:34;;;;;;;3.08;0.98;;;;;;;;;;5072146;28;20024;-46
2022/02/17 11:22:00;;;;;;;5.97;1.48;;;;;;;;;;5072138;28;20086;-46
2022/02/17 11:24:26;;;;;;;4.82;1.30;;;;;;;;;;5072117;28;20024;-46
2022/02/17 11:27:05;;;;;;;5.03;1.70;;;17.70;64.30;;;;;;5072079;28;20094;-45
2022/02/17 11:29:36;;;;;;;5.45;1.08;;;17.70;68.50;;;;;;5072346;28;20059;-46
2022/02/17 11:32:06;;;;;;;2.92;1.27;;;17.70;69.90;;;;;;5072364;28;20431;-46
2022/02/17 11:34:41;;;;;;;5.45;1.30;;;17.80;64.10;;;;;;5071905;28;20044;-46
2022/02/17 11:37:22;;;;;;;7.07;1.40;;;17.80;64.20;;;;;;5071899;28;20032;-46
2022/02/17 11:39:57;;;;;;;5.55;1.60;;;17.70;64.10;;;;;;5071915;28;20487;-46
2022/02/17 11:42:30;;;;;;;4.95;1.20;;;17.70;64.20;;;;;;5071915;28;20111;-46
2022/02/17 11:45:17;;;;;;;5.43;1.13;;;17.70;64.20;;;;;;5071853;28;20154;-45
2022/02/17 11:48:06;;;;;;;4.50;1.35;;;17.70;64.50;;;;;;5071840;28;20059;-46
2022/02/17 11:50:40;;;;;;;3.75;1.20;;;17.60;64.00;;;;;;5072067;28;20099;-46
2022/02/17 11:53:26;;;;;;;4.47;1.30;;;17.70;63.80;;;;;;5071834;28;20033;-46
2022/02/17 11:55:52;;;;;;;3.08;1.02;;;;;;;;;;5071777;28;20024;-45
2022/02/17 11:58:40;;;;;;;4.93;1.33;;;17.60;63.80;;;;;;5071778;28;20028;-46
2022/02/17 12:01:27;;;;;;;4.22;1.30;;;17.70;64.00;;;;;;5071567;28;20032;-45
2022/02/17 12:04:18;;;;;;;5.60;1.33;;;17.70;63.90;;;;;;5071291;28;20075;-46
2022/02/17 12:06:46;;;;;;;5.38;1.17;;;17.70;69.70;;;;;;5071443;28;20029;-46
2022/02/17 12:09:44;;;;;;;6.13;1.48;;;17.60;63.90;;;;;;5071505;28;20024;-46
2022/02/17 12:12:13;;;;;;;4.22;1.38;;;17.60;64.00;;;;;;5071813;28;20037;-46
2022/02/17 12:14:56;;;;;;;4.20;1.10;;;17.60;64.00;;;;;;5071559;28;20045;-45
2022/02/17 12:17:30;;;;;;;6.18;1.67;;;17.60;64.00;;;;;;5071434;28;20387;-46
2022/02/17 12:20:07;;;;;;;4.80;1.40;;;17.60;64.00;;;;;;5072759;28;20070;-45
2022/02/17 12:22:33;;;;;;;4.90;1.63;;;;;;;;;;5074961;28;20025;-46
2022/02/17 12:25:13;;;;;;;3.63;1.15;;;17.60;64.30;;;;;;5074828;28;20066;-46
2022/02/17 12:27:41;;;;;;;3.25;1.13;;;17.50;69.60;;;;;;5074908;28;20029;-46
2022/02/17 12:30:07;;;;;;;5.05;1.13;;;;;;;;;;5075114;28;20035;-46
2022/02/17 12:32:34;;;;;;;5.43;1.20;;;;;;;;;;5074608;28;20028;-46
2022/02/17 12:35:00;;;;;;;3.22;1.15;;;;;;;;;;5074682;28;20391;-46
2022/02/17 12:37:26;;;;;;;5.32;1.50;;;;;;;;;;5074651;28;20031;-46
2022/02/17 12:39:52;;;;;;;5.32;1.40;;;;;;;;;;5074803;28;20024;-46
2022/02/17 12:42:20;;;;;;;6.00;1.45;;;17.50;70.00;;;;;;5074865;28;20044;-45
2022/02/17 12:44:46;;;;;;;4.13;1.50;;;;;;;;;;5074944;28;20425;-46
2022/02/17 12:47:13;;;;;;;8.10;1.83;;;17.50;70.00;;;;;;5074776;28;20090;-47
2022/02/17 12:49:39;;;;;;;5.60;1.67;;;17.40;67.60;;;;;;5074658;28;20029;-46
2022/02/17 12:52:17;;;;;;;3.05;1.52;;;17.40;64.30;;;;;;5074514;28;20062;-46
2022/02/17 12:54:53;;;;;;;7.03;1.73;;;17.40;70.00;;;;;;5074448;28;20028;-45
2022/02/17 12:57:19;;;;;;;4.03;1.58;;;;;;;;;;5074346;28;20467;-46
2022/02/17 12:59:45;;;;;;;4.85;1.50;;;;;;;;;;5074398;28;20067;-46
2022/02/17 13:02:11;;;;;;;5.15;1.45;;;17.40;68.80;;;;;;5074045;28;20052;-46
2022/02/17 13:04:39;;;;;;;4.47;1.17;;;;;;;;;;5074365;28;20068;-46
2022/02/17 13:07:12;;;;;;;5.55;2.00;;;17.40;69.90;;;;;;5074507;28;20112;-46
2022/02/17 13:09:38;;;;;;;4.93;1.30;;;;;;;;;;5074185;28;20043;-46
2022/02/17 13:12:08;;;;;;;5.05;1.73;;;17.40;70.30;;;;;;5074175;28;20398;-46
2022/02/17 13:14:45;;;;;;;4.05;1.63;;;17.30;70.10;;;;;;5074095;28;20039;-46
2022/02/17 13:17:13;;;;;;;4.00;1.20;;;17.30;70.30;;;;;;5074225;28;20016;-46
2022/02/17 13:19:39;;;;;;;5.43;1.60;;;17.30;71.00;;;;;;5073915;28;20398;-46
2022/02/17 13:22:05;;;;;;;5.47;1.40;;;;;;;;;;5074262;28;20441;-45
2022/02/17 13:24:31;;;;;;;4.22;1.52;;;;;;;;;;5074005;28;20056;-46
2022/02/17 13:27:10;;;;;;;4.60;1.50;;;17.30;65.80;;;;;;5073784;28;20028;-47
2022/02/17 13:29:59;;;;;;;3.42;1.30;;;17.20;65.20;;;;;;5073807;28;20483;-47
2022/02/17 13:32:28;;;;;;;4.80;1.23;;;17.10;70.70;;;;;;5073115;28;20031;-46
2022/02/17 13:35:05;;;;;;;4.03;1.23;;;17.20;65.10;;;;;;5073619;28;20090;-46
2022/02/17 13:37:50;;;;;;;4.22;1.33;;;17.20;65.20;;;;;;5073944;28;20363;-47
2022/02/17 13:40:18;;;;;;;4.85;1.35;;;17.00;71.00;;;;;;5073865;28;20039;-46
2022/02/17 13:43:05;;;;;;;4.57;1.40;;;17.20;65.30;;;;;;5073454;28;20490;-46
2022/02/17 13:45:33;;;;;;;3.67;1.30;;;17.20;70.90;;;;;;5073379;28;20036;-46
2022/02/17 13:48:01;;;;;;;4.10;1.15;;;;;;;;;;5073213;28;20102;-46
2022/02/17 13:50:27;;;;;;;4.82;1.27;;;;;;;;;;5073405;28;20025;-47
2022/02/17 13:53:09;;;;;;;5.63;1.73;;;17.10;65.20;;;;;;5073208;28;20032;-46
2022/02/17 13:55:39;;;;;;;4.32;1.60;;;17.10;71.20;;;;;;5072990;28;20040;-46
2022/02/17 13:58:05;;;;;;;5.38;1.48;;;17.10;68.40;;;;;;5073568;28;20025;-46
2022/02/17 14:00:35;;;;;;;4.25;1.40;;;17.10;71.10;;;;;;5073523;28;20431;-46
2022/02/17 14:03:21;;;;;;;4.88;1.80;;;17.10;65.20;;;;;;5073032;28;20063;-46
2022/02/17 14:05:47;;;;;;;3.90;1.50;;;;;;;;;;5073076;28;20029;-45
2022/02/17 14:08:13;;;;;;;2.33;0.95;;;;;;;;;;5073021;28;20032;-46
2022/02/17 14:10:41;;;;;;;5.50;1.17;;;17.10;65.90;;;;;;5072962;28;20029;-47